Time;durP1;ratioP1;P1;durP2;ratioP2;P2;SDS_P1;SDS_P2;PMS_P1;PMS_P2;Temp;Humidity;BMP_temperature;BMP_pressure;BME280_temperature;BME280_humidity;BME280_pressure;Samples;Min_cycle;Max_cycle;Signal;HPM_P1;HPM_P2
2022/08/09 00:01:47;;;;;;;8.90;6.37;;;;;;;15.63;86.10;102566.06;5007622;28;20042;-80
2022/08/09 00:04:13;;;;;;;10.30;6.70;;;;;;;15.64;85.67;102565.84;5007891;28;20162;-82
2022/08/09 00:06:39;;;;;;;11.23;6.37;;;;;;;15.69;85.43;102566.09;5007508;28;20038;-82
2022/08/09 00:09:04;;;;;;;13.73;6.60;;;;;;;15.74;85.27;102564.63;5008195;28;20038;-81
2022/08/09 00:11:29;;;;;;;9.20;6.47;;;;;;;15.70;84.99;102554.06;5008065;28;20117;-82
2022/08/09 00:13:55;;;;;;;7.00;6.30;;;;;;;15.73;85.35;102571.97;4988074;28;20050;-80
2022/08/09 00:16:20;;;;;;;10.00;6.70;;;;;;;15.74;85.10;102568.19;5008035;28;20030;-81
2022/08/09 00:18:48;;;;;;;10.73;6.63;;;;;;;15.74;85.03;102561.88;5007701;28;20144;-81
2022/08/09 00:21:13;;;;;;;9.37;6.63;;;;;;;15.70;85.16;102556.81;4987890;28;20034;-82
2022/08/09 00:23:39;;;;;;;10.63;6.57;;;;;;;15.75;84.81;102558.09;5008238;28;20374;-81
2022/08/09 00:26:06;;;;;;;8.43;6.50;;;;;;;15.64;85.49;102563.09;5007117;28;20045;-81
2022/08/09 00:28:32;;;;;;;7.73;6.43;;;;;;;15.62;85.23;102559.72;4988498;28;20056;-81
2022/08/09 00:30:58;;;;;;;11.90;6.83;;;;;;;15.62;85.68;102553.44;5007626;28;20038;-81
2022/08/09 00:33:23;;;;;;;7.17;6.40;;;;;;;15.55;85.39;102556.13;5007157;28;20425;-81
2022/08/09 00:35:49;;;;;;;8.77;6.50;;;;;;;15.61;85.01;102547.13;4986931;28;20116;-81
2022/08/09 00:38:15;;;;;;;8.13;6.20;;;;;;;15.46;85.24;102544.53;5007509;28;21342;-81
2022/08/09 00:40:43;;;;;;;7.43;6.03;;;;;;;15.50;85.16;102551.28;5007013;28;20041;-80
2022/08/09 00:43:08;;;;;;;8.37;6.10;;;;;;;15.37;85.40;102548.50;5006816;28;20441;-81
2022/08/09 00:45:34;;;;;;;10.87;6.30;;;;;;;15.33;85.46;102558.97;5007219;28;21351;-80
2022/08/09 00:48:00;;;;;;;9.10;6.40;;;;;;;15.18;86.07;102558.25;4986678;28;20048;-81
2022/08/09 00:50:26;;;;;;;9.97;6.50;;;;;;;15.23;85.91;102563.97;4987749;28;21350;-80
2022/08/09 00:52:52;;;;;;;8.00;6.17;;;;;;;15.12;86.13;102559.03;4986912;28;20552;-81
2022/08/09 00:55:18;;;;;;;6.30;5.70;;;;;;;15.16;86.00;102552.13;5007086;28;20040;-81
2022/08/09 00:57:44;;;;;;;9.07;6.00;;;;;;;15.12;86.40;102559.91;5006384;28;20037;-81
2022/08/09 01:00:10;;;;;;;7.17;5.90;;;;;;;15.03;86.47;102556.47;5007096;28;20134;-81
2022/08/09 01:02:39;;;;;;;8.50;5.77;;;;;;;15.06;86.64;102566.16;5006767;28;20113;-81
2022/08/09 01:05:22;;;;;;;7.27;5.97;;;;;;;14.98;86.80;102569.88;5006784;28;20041;-83
2022/08/09 01:08:07;;;;;;;6.43;5.73;;;;;;;14.95;86.62;102574.91;5007238;28;21429;-81
2022/08/09 01:10:37;;;;;;;7.60;6.30;;;;;;;14.91;86.61;102571.72;5005967;28;20547;-82
2022/08/09 01:13:29;;;;;;;6.90;6.10;;;;;;;14.78;86.17;102569.75;5006574;28;20041;-82
2022/08/09 01:15:56;;;;;;;9.93;6.50;;;;;;;14.50;86.68;102566.94;5007365;28;20046;-81
2022/08/09 01:18:27;;;;;;;8.40;6.30;;;;;;;14.69;86.96;102571.75;5006282;28;20034;-81
2022/08/09 01:21:23;;;;;;;8.00;6.77;;;;;;;14.59;87.45;102565.78;5006427;28;20025;-81
2022/08/09 01:23:58;;;;;;;8.77;6.50;;;;;;;14.56;87.14;102568.03;5005377;28;20112;-82
2022/08/09 01:26:45;;;;;;;9.10;6.43;;;;;;;14.54;87.07;102568.25;4988255;28;20049;-81
2022/08/09 01:29:12;;;;;;;9.00;6.63;;;;;;;14.41;87.25;102573.56;5006982;28;20050;-81
2022/08/09 01:31:40;;;;;;;7.20;6.50;;;;;;;14.39;87.60;102571.03;5005506;28;20064;-81
2022/08/09 01:34:08;;;;;;;7.47;6.77;;;;;;;14.35;87.39;102567.03;5006204;28;20029;-80
2022/08/09 01:36:36;;;;;;;9.83;7.10;;;;;;;14.29;87.90;102559.59;4986688;28;20049;-82
2022/08/09 01:39:02;;;;;;;8.50;6.87;;;;;;;14.27;87.86;102557.09;5006053;28;20052;-81
2022/08/09 01:41:30;;;;;;;8.57;6.57;;;;;;;14.37;88.23;102562.19;5007094;28;20386;-81
2022/08/09 01:43:59;;;;;;;7.53;6.57;;;;;;;14.34;88.03;102563.44;5005942;28;20034;-82
2022/08/09 01:46:32;;;;;;;8.17;6.93;;;;;;;14.32;88.44;102557.34;5005564;28;20064;-82
2022/08/09 01:49:00;;;;;;;9.53;6.80;;;;;;;14.26;88.09;102557.28;5005405;28;20033;-81
2022/08/09 01:51:28;;;;;;;9.87;7.10;;;;;;;14.15;88.30;102564.91;5006254;28;20497;-81
2022/08/09 01:53:56;;;;;;;11.30;7.43;;;;;;;14.18;88.55;102564.56;5005236;28;20029;-81
2022/08/09 01:56:23;;;;;;;9.40;7.13;;;;;;;14.11;88.81;102568.25;5005983;28;20061;-82
2022/08/09 01:58:51;;;;;;;13.63;7.37;;;;;;;14.08;89.18;102563.19;4985746;28;20069;-82
2022/08/09 02:01:18;;;;;;;14.93;7.27;;;;;;;14.07;89.34;102566.94;4989030;28;20037;-81
2022/08/09 02:03:46;;;;;;;14.73;7.43;;;;;;;14.12;89.52;102573.50;5005584;28;20057;-81
2022/08/09 02:06:13;;;;;;;9.80;7.00;;;;;;;13.98;89.76;102572.50;4986015;28;20065;-81
2022/08/09 02:08:42;;;;;;;11.37;7.67;;;;;;;13.88;91.14;102569.25;5005865;28;20092;-81
2022/08/09 02:11:11;;;;;;;13.63;7.73;;;;;;;14.08;91.72;102579.53;5005324;28;20034;-82
2022/08/09 02:13:37;;;;;;;11.10;7.50;;;;;;;14.11;91.68;102573.69;5005414;28;20034;-81
2022/08/09 02:16:05;;;;;;;9.27;7.60;;;;;;;14.16;91.36;102577.53;4986732;28;20037;-82
2022/08/09 02:18:32;;;;;;;7.93;7.13;;;;;;;14.24;91.41;102579.28;4984608;28;20034;-82
2022/08/09 02:21:04;;;;;;;11.37;7.90;;;;;;;14.23;91.15;102568.59;5005000;28;20037;-81
2022/08/09 02:23:37;;;;;;;9.43;7.37;;;;;;;14.29;90.98;102571.38;5005744;28;20030;-82
2022/08/09 02:26:05;;;;;;;10.63;7.73;;;;;;;14.31;90.95;102568.44;5005661;28;20040;-82
2022/08/09 02:28:40;;;;;;;12.03;7.20;;;;;;;14.29;90.78;102573.25;5003730;28;21210;-82
2022/08/09 02:31:12;;;;;;;9.30;7.63;;;;;;;14.29;90.77;102579.56;5005407;28;20044;-82
2022/08/09 02:33:42;;;;;;;11.27;7.73;;;;;;;14.31;90.81;102576.63;5005574;28;20029;-81
2022/08/09 02:36:13;;;;;;;11.80;8.00;;;;;;;14.24;91.19;102573.84;5004887;28;20044;-82
2022/08/09 02:38:46;;;;;;;10.83;8.07;;;;;;;14.28;90.98;102572.41;5004941;28;20253;-81
2022/08/09 02:41:15;;;;;;;12.90;7.80;;;;;;;14.25;91.20;102572.81;5005486;28;20092;-81
2022/08/09 02:43:44;;;;;;;10.50;7.57;;;;;;;14.22;91.88;102558.72;5004643;28;20112;-83
2022/08/09 02:46:12;;;;;;;11.67;8.10;;;;;;;14.13;92.23;102566.16;4985582;28;20041;-82
2022/08/09 02:48:39;;;;;;;10.90;7.70;;;;;;;14.12;92.17;102565.31;5005337;28;20687;-81
2022/08/09 02:51:10;;;;;;;9.13;7.73;;;;;;;14.16;92.42;102565.78;5005051;28;20041;-82
2022/08/09 02:53:44;;;;;;;13.47;8.17;;;;;;;14.10;92.85;102558.38;5004968;28;20068;-81
2022/08/09 02:56:10;;;;;;;11.68;8.10;;;;;;;14.10;92.68;102558.38;5004927;28;20080;-82
2022/08/09 02:58:37;;;;;;;10.17;8.03;;;;;;;14.09;92.77;102559.41;5005550;28;20414;-82
2022/08/09 03:01:04;;;;;;;10.40;7.93;;;;;;;14.13;92.51;102566.16;5004989;28;20401;-82
2022/08/09 03:03:32;;;;;;;10.57;7.63;;;;;;;14.18;92.39;102563.69;5004135;28;20033;-82
2022/08/09 03:05:59;;;;;;;11.77;7.87;;;;;;;14.16;92.15;102557.59;5005275;28;20080;-82
2022/08/09 03:08:26;;;;;;;11.57;8.27;;;;;;;14.09;92.29;102560.25;4983934;28;20062;-81
2022/08/09 03:10:54;;;;;;;12.33;7.97;;;;;;;14.04;92.82;102564.59;5004285;28;20042;-82
2022/08/09 03:13:21;;;;;;;13.93;7.97;;;;;;;14.02;93.45;102567.53;5004629;28;20469;-81
2022/08/09 03:15:47;;;;;;;11.10;8.23;;;;;;;13.98;93.78;102558.88;5004503;28;20112;-81
2022/08/09 03:18:14;;;;;;;12.93;8.23;;;;;;;13.94;93.40;102554.84;5004714;28;20704;-81
2022/08/09 03:20:42;;;;;;;11.97;7.93;;;;;;;13.99;93.19;102559.72;5003913;28;20048;-81
2022/08/09 03:23:09;;;;;;;12.00;7.93;;;;;;;14.02;93.11;102562.91;5005600;28;20038;-81
2022/08/09 03:25:35;;;;;;;10.50;7.70;;;;;;;13.96;92.74;102563.66;4984615;28;20048;-81
2022/08/09 03:28:04;;;;;;;12.67;8.20;;;;;;;13.95;92.72;102559.28;4983512;28;20058;-83
2022/08/09 03:30:31;;;;;;;11.63;7.70;;;;;;;13.92;92.04;102565.09;5005128;28;20383;-82
2022/08/09 03:32:58;;;;;;;9.90;7.50;;;;;;;13.72;91.48;102556.72;5004537;28;20167;-81
2022/08/09 03:35:24;;;;;;;9.43;7.40;;;;;;;13.75;91.72;102553.59;5004577;28;20026;-82
2022/08/09 03:37:50;;;;;;;9.70;7.57;;;;;;;13.81;91.89;102562.88;5004798;28;20034;-82
2022/08/09 03:40:15;;;;;;;12.57;7.77;;;;;;;13.84;93.15;102566.06;5004504;28;20042;-81
2022/08/09 03:42:41;;;;;;;14.47;8.20;;;;;;;13.80;93.56;102569.34;4985153;28;20486;-81
2022/08/09 03:45:07;;;;;;;14.70;8.80;;;;;;;13.66;93.73;102566.47;5004701;28;20452;-82
2022/08/09 03:47:32;;;;;;;15.30;9.00;;;;;;;13.61;94.29;102568.94;5003537;28;20052;-82
2022/08/09 03:50:01;;;;;;;12.50;8.67;;;;;;;13.67;94.77;102568.16;5004383;28;20806;-81
2022/08/09 03:52:29;;;;;;;13.20;8.30;;;;;;;13.68;94.55;102567.13;5004341;28;20129;-82
2022/08/09 03:54:56;;;;;;;13.20;8.70;;;;;;;13.53;92.92;102566.31;5003711;28;20036;-81
2022/08/09 03:57:22;;;;;;;16.93;8.33;;;;;;;13.54;92.78;102559.81;5007648;28;20037;-83
2022/08/09 03:59:49;;;;;;;12.30;8.60;;;;;;;13.64;93.08;102565.81;4974118;28;20034;-82
2022/08/09 04:02:14;;;;;;;13.90;9.07;;;;;;;13.64;93.76;102571.28;4990097;28;20410;-82
2022/08/09 04:04:40;;;;;;;14.40;8.07;;;;;;;13.36;92.63;102565.66;5007717;28;20102;-82
2022/08/09 04:07:05;;;;;;;10.37;7.90;;;;;;;13.41;92.76;102556.91;5007934;28;20076;-82
2022/08/09 04:09:31;;;;;;;12.27;8.60;;;;;;;13.36;93.19;102565.66;5007417;28;20394;-82
2022/08/09 04:12:08;;;;;;;12.27;8.97;;;;;;;13.42;94.39;102569.50;5008099;28;20064;-82
2022/08/09 04:14:34;;;;;;;15.97;8.43;;;;;;;13.18;93.49;102564.13;5007366;28;20041;-82
2022/08/09 04:17:00;;;;;;;13.50;8.30;;;;;;;13.25;93.75;102557.94;5007802;28;20041;-83
2022/08/09 04:19:25;;;;;;;14.83;8.30;;;;;;;13.20;93.47;102557.66;5007445;28;20033;-82
2022/08/09 04:21:51;;;;;;;12.87;8.73;;;;;;;13.21;93.21;102567.50;5007097;28;20386;-82
2022/08/09 04:24:16;;;;;;;12.03;8.17;;;;;;;13.25;93.70;102569.66;5008879;28;20072;-82
2022/08/09 04:26:42;;;;;;;24.63;8.13;;;;;;;13.14;93.10;102570.13;5006636;28;20362;-82
2022/08/09 04:29:07;;;;;;;18.47;8.90;;;;;;;13.25;93.74;102568.81;5006991;28;20064;-82
2022/08/09 04:31:33;;;;;;;36.77;10.00;;;;;;;13.19;93.67;102570.44;5007751;28;20144;-82
2022/08/09 04:33:58;;;;;;;13.97;9.13;;;;;;;13.22;94.92;102574.63;4985968;28;20371;-82
2022/08/09 04:36:26;;;;;;;14.87;9.70;;;;;;;13.24;96.22;102578.03;5007228;28;20033;-82
2022/08/09 04:38:53;;;;;;;12.63;9.47;;;;;;;13.24;96.95;102583.47;5007671;28;20130;-82
2022/08/09 04:41:19;;;;;;;16.80;9.53;;;;;;;13.23;96.58;102579.91;4986758;28;20064;-81
2022/08/09 04:43:44;;;;;;;15.63;9.60;;;;;;;13.28;96.62;102596.50;4989043;28;20037;-81
2022/08/09 04:46:10;;;;;;;16.33;10.17;;;;;;;13.35;97.07;102585.72;4987977;28;20056;-81
2022/08/09 04:48:35;;;;;;;15.43;10.57;;;;;;;13.27;98.48;102583.06;5007354;28;20045;-82
2022/08/09 04:51:00;;;;;;;14.97;10.37;;;;;;;13.21;98.60;102579.22;5006176;28;20037;-81
2022/08/09 04:53:26;;;;;;;14.83;9.97;;;;;;;13.33;98.68;102588.63;5006959;28;20053;-82
2022/08/09 04:55:51;;;;;;;15.73;10.63;;;;;;;13.40;98.79;102590.63;5007199;28;20549;-82
2022/08/09 04:58:16;;;;;;;18.27;10.90;;;;;;;13.44;98.32;102589.22;5006463;28;20619;-82
2022/08/09 05:00:42;;;;;;;17.27;10.53;;;;;;;13.44;98.60;102591.94;5007209;28;20081;-82
2022/08/09 05:03:07;;;;;;;14.87;11.00;;;;;;;13.50;98.43;102597.50;4988439;28;20051;-82
2022/08/09 05:05:32;;;;;;;18.90;11.07;;;;;;;13.59;98.16;102597.38;5006339;28;20160;-82
2022/08/09 05:07:58;;;;;;;16.83;10.90;;;;;;;13.57;99.37;102597.59;5006432;28;21611;-82
2022/08/09 05:10:23;;;;;;;18.20;11.23;;;;;;;13.63;99.04;102599.53;5006755;28;20049;-82
2022/08/09 05:12:49;;;;;;;13.77;10.80;;;;;;;13.67;98.85;102600.84;5005521;28;20033;-82
2022/08/09 05:15:15;;;;;;;16.40;10.87;;;;;;;13.72;98.97;102604.88;4987036;28;20700;-81
2022/08/09 05:17:41;;;;;;;13.83;10.63;;;;;;;13.79;99.17;102603.06;4986922;28;20682;-82
2022/08/09 05:20:08;;;;;;;16.13;10.80;;;;;;;13.83;99.44;102609.81;5006029;28;20443;-81
2022/08/09 05:22:34;;;;;;;15.70;11.43;;;;;;;13.83;100.00;102610.69;5006542;28;20056;-82
2022/08/09 05:24:59;;;;;;;15.37;11.57;;;;;;;13.83;100.00;102605.25;5006277;28;20457;-81
2022/08/09 05:27:25;;;;;;;16.43;10.77;;;;;;;13.95;99.26;102608.34;4986769;28;20306;-83
2022/08/09 05:29:50;;;;;;;15.03;10.20;;;;;;;14.05;98.84;102601.69;5006606;28;21437;-81
2022/08/09 05:32:15;;;;;;;15.20;10.70;;;;;;;14.06;99.47;102615.16;5006794;28;20128;-83
2022/08/09 05:34:41;;;;;;;15.27;10.43;;;;;;;14.11;99.10;102617.31;5005417;28;20277;-82
2022/08/09 05:37:06;;;;;;;15.33;10.77;;;;;;;14.16;100.00;102617.56;5006397;28;20490;-82
2022/08/09 05:39:36;;;;;;;18.07;11.77;;;;;;;14.16;100.00;102621.13;4987819;28;20087;-82
2022/08/09 05:42:01;;;;;;;17.03;10.97;;;;;;;14.27;100.00;102619.78;5006098;28;20139;-82
2022/08/09 05:44:27;;;;;;;17.67;11.67;;;;;;;14.33;100.00;102618.16;5006409;28;20042;-81
2022/08/09 05:46:52;;;;;;;18.10;11.80;;;;;;;14.43;100.00;102613.25;5006329;28;20050;-82
2022/08/09 05:49:18;;;;;;;16.93;11.37;;;;;;;14.51;100.00;102621.31;5006288;28;20184;-81
2022/08/09 05:51:43;;;;;;;17.37;11.87;;;;;;;14.57;100.00;102614.22;5005596;28;20042;-83
2022/08/09 05:54:09;;;;;;;15.17;11.03;;;;;;;14.75;99.01;102616.50;5006893;28;20040;-83
2022/08/09 05:56:34;;;;;;;15.20;11.57;;;;;;;14.86;98.93;102620.59;5005580;28;20486;-82
2022/08/09 05:59:00;;;;;;;18.20;11.30;;;;;;;14.97;98.49;102627.38;4986357;28;20037;-82
2022/08/09 06:01:27;;;;;;;16.30;11.20;;;;;;;15.06;98.42;102626.22;5006014;28;20034;-82
2022/08/09 06:03:53;;;;;;;15.77;11.13;;;;;;;15.15;97.96;102630.47;5005170;28;20474;-81
2022/08/09 06:06:18;;;;;;;15.97;11.27;;;;;;;15.31;97.47;102629.34;4985545;28;20450;-81
2022/08/09 06:08:44;;;;;;;15.17;11.40;;;;;;;15.43;97.30;102629.59;5005189;28;20082;-81
2022/08/09 06:11:10;;;;;;;17.47;11.77;;;;;;;15.50;96.63;102638.69;5005728;28;20069;-81
2022/08/09 06:13:36;;;;;;;16.13;11.00;;;;;;;15.62;96.55;102636.22;4985863;28;20065;-81
2022/08/09 06:16:03;;;;;;;16.40;11.57;;;;;;;15.69;96.50;102625.34;5005757;28;20140;-81
2022/08/09 06:18:28;;;;;;;15.80;11.10;;;;;;;15.80;95.61;102634.88;4978001;28;20044;-79
2022/08/09 06:20:55;;;;;;;15.87;11.20;;;;;;;15.91;95.34;102647.13;5005598;28;20053;-81
2022/08/09 06:23:21;;;;;;;16.47;11.30;;;;;;;16.03;94.95;102646.34;4984873;28;20370;-81
2022/08/09 06:25:46;;;;;;;15.43;11.03;;;;;;;16.14;94.65;102650.38;5003914;28;20101;-81
2022/08/09 06:28:12;;;;;;;17.97;11.57;;;;;;;16.28;94.73;102647.66;5003877;28;20385;-80
2022/08/09 06:30:37;;;;;;;16.57;11.10;;;;;;;16.33;93.82;102640.56;4985342;28;20115;-80
2022/08/09 06:33:02;;;;;;;16.53;11.27;;;;;;;16.46;93.31;102644.38;5005036;28;20053;-81
2022/08/09 06:35:28;;;;;;;15.77;10.77;;;;;;;16.57;92.88;102651.13;5005653;28;20121;-81
2022/08/09 06:37:53;;;;;;;16.37;10.80;;;;;;;16.67;92.20;102648.81;5005047;28;20076;-81
2022/08/09 06:40:19;;;;;;;14.77;10.50;;;;;;;16.79;91.67;102651.78;4984186;28;20472;-79
2022/08/09 06:42:45;;;;;;;17.63;10.30;;;;;;;16.90;91.48;102653.06;5004598;28;20116;-81
2022/08/09 06:45:10;;;;;;;14.93;10.20;;;;;;;17.00;90.60;102651.59;5004507;28;20072;-81
2022/08/09 06:47:36;;;;;;;14.77;10.10;;;;;;;17.12;89.98;102645.47;5004851;28;20044;-81
2022/08/09 06:50:01;;;;;;;15.70;10.07;;;;;;;17.19;88.96;102647.16;5005348;28;20387;-80
2022/08/09 06:52:27;;;;;;;13.87;9.97;;;;;;;17.31;88.50;102644.63;5005484;28;20025;-80
2022/08/09 06:54:53;;;;;;;13.30;9.53;;;;;;;17.51;88.37;102646.47;4985926;28;20037;-82
2022/08/09 06:57:18;;;;;;;13.27;9.23;;;;;;;17.58;87.32;102646.47;5004780;28;20083;-78
2022/08/09 06:59:45;;;;;;;14.20;8.80;;;;;;;17.70;86.92;102650.22;5004260;28;20088;-82
2022/08/09 07:02:10;;;;;;;14.53;9.57;;;;;;;17.77;86.44;102653.78;5004473;28;20555;-78
2022/08/09 07:04:36;;;;;;;14.83;8.77;;;;;;;17.97;86.59;102653.72;5004592;28;20060;-81
2022/08/09 07:07:03;;;;;;;13.87;9.07;;;;;;;18.10;86.05;102663.81;5004044;28;20723;-80
2022/08/09 07:09:28;;;;;;;13.93;9.00;;;;;;;18.22;85.36;102661.22;5005003;28;20034;-79
2022/08/09 07:11:54;;;;;;;10.37;7.53;;;;;;;18.33;83.31;102667.91;5004271;28;20033;-78
2022/08/09 07:14:19;;;;;;;9.87;7.40;;;;;;;18.41;83.43;102667.66;5003906;28;20045;-79
2022/08/09 07:16:45;;;;;;;11.17;7.43;;;;;;;18.54;82.70;102669.47;5005336;28;20048;-79
2022/08/09 07:19:11;;;;;;;10.43;7.20;;;;;;;18.59;80.43;102666.06;5004692;28;20041;-79
2022/08/09 07:21:37;;;;;;;15.10;7.20;;;;;;;18.64;81.65;102658.00;5003342;28;20381;-78
2022/08/09 07:24:03;;;;;;;12.90;7.70;;;;;;;18.81;80.55;102663.81;5004674;28;20037;-79
2022/08/09 07:26:29;;;;;;;12.03;7.07;;;;;;;19.04;80.84;102668.72;5003181;28;20069;-80
2022/08/09 07:28:54;;;;;;;11.02;6.97;;;;;;;19.05;79.88;102665.75;5003976;28;20050;-79
2022/08/09 07:31:20;;;;;;;10.98;6.75;;;;;;;19.13;78.91;102661.84;5005799;28;20568;-81
2022/08/09 07:33:45;;;;;;;9.07;6.55;;;;;;;19.27;78.09;102675.47;5008241;28;21021;-81
2022/08/09 07:36:12;;;;;;;10.57;5.97;;;;;;;19.37;77.38;102673.06;5007856;28;20040;-81
2022/08/09 07:38:37;;;;;;;11.95;6.80;;;;;;;19.57;76.98;102667.38;5008732;28;20044;-79
2022/08/09 07:41:03;;;;;;;7.90;6.10;;;;;;;19.52;75.46;102661.72;5008091;28;20038;-80
2022/08/09 07:43:28;;;;;;;8.45;6.13;;;;;;;19.64;75.49;102670.88;4988818;28;20639;-80
2022/08/09 07:45:54;;;;;;;8.35;6.00;;;;;;;19.74;74.94;102675.84;5008361;28;20041;-79
2022/08/09 07:48:19;;;;;;;10.13;6.28;;;;;;;19.86;74.25;102675.97;5008057;28;20504;-78
2022/08/09 07:50:45;;;;;;;10.20;6.13;;;;;;;19.88;73.45;102682.06;5007709;28;20045;-79
2022/08/09 07:53:10;;;;;;;10.00;5.78;;;;;;;20.16;73.17;102680.66;4988724;28;20030;-78
2022/08/09 07:55:36;;;;;;;11.48;6.07;;;;;;;20.21;74.30;102678.06;4987742;28;20100;-80
2022/08/09 07:58:02;;;;;;;10.82;6.32;;;;;;;20.30;73.16;102682.16;4973737;28;20087;-81
2022/08/09 08:00:31;;;;;;;10.18;5.65;;;;;;;20.39;72.28;102675.25;5007839;28;20059;-80
2022/08/09 08:02:58;;;;;;;8.00;5.45;;;;;;;20.50;71.22;102681.03;5007728;28;20029;-80
2022/08/09 08:05:24;;;;;;;10.68;5.40;;;;;;;20.48;70.21;102680.44;5005792;28;20068;-77
2022/08/09 08:07:50;;;;;;;10.27;5.00;;;;;;;20.63;70.04;102678.09;5005395;28;20049;-79
2022/08/09 08:10:16;;;;;;;8.75;5.15;;;;;;;20.70;70.66;102687.13;5005437;28;20045;-80
2022/08/09 08:12:42;;;;;;;9.50;5.20;;;;;;;20.83;69.01;102685.22;5005696;28;20038;-82
2022/08/09 08:15:08;;;;;;;6.70;4.53;;;;;;;20.89;69.02;102684.31;4991389;28;20045;-80
2022/08/09 08:17:34;;;;;;;10.25;5.10;;;;;;;20.99;68.41;102683.72;5006228;28;21405;-79
2022/08/09 08:20:00;;;;;;;8.25;4.53;;;;;;;21.02;66.86;102683.22;4988286;28;20046;-82
2022/08/09 08:22:26;;;;;;;7.38;4.60;;;;;;;21.02;67.20;102678.53;5005754;28;20551;-80
2022/08/09 08:24:54;;;;;;;7.22;4.35;;;;;;;21.04;66.89;102676.41;4984787;28;20091;-81
2022/08/09 08:27:24;;;;;;;7.63;5.07;;;;;;;21.18;67.46;102674.25;5004784;28;20043;-82
2022/08/09 08:29:50;;;;;;;7.85;4.55;;;;;;;21.37;66.56;102665.88;5005468;28;20063;-80
2022/08/09 08:32:17;;;;;;;8.63;4.47;;;;;;;21.71;66.31;102664.16;5005031;28;20042;-79
2022/08/09 08:34:42;;;;;;;9.10;4.50;;;;;;;21.90;63.55;102672.28;4976258;28;20248;-80
2022/08/09 08:37:08;;;;;;;6.93;3.85;;;;;;;22.03;63.13;102668.41;4988716;28;20470;-80
2022/08/09 08:39:33;;;;;;;6.50;3.92;;;;;;;22.34;62.51;102669.88;5004942;28;20038;-79
2022/08/09 08:41:59;;;;;;;5.80;3.33;;;;;;;22.69;62.22;102679.91;5004390;28;20060;-79
2022/08/09 08:44:27;;;;;;;7.75;3.58;;;;;;;23.01;60.11;102684.00;5004694;28;20054;-78
2022/08/09 08:46:54;;;;;;;7.18;3.30;;;;;;;23.31;59.75;102685.63;5005156;28;20485;-81
2022/08/09 08:49:20;;;;;;;6.50;3.10;;;;;;;23.70;58.87;102693.94;4984355;28;20764;-79
2022/08/09 08:51:46;;;;;;;5.30;2.70;;;;;;;23.70;56.44;102682.84;4984283;28;20045;-81
2022/08/09 08:54:13;;;;;;;7.72;3.10;;;;;;;23.85;56.03;102688.59;5004606;28;20570;-83
2022/08/09 08:56:39;;;;;;;6.53;3.10;;;;;;;24.24;54.36;102694.06;5005493;28;20056;-80
2022/08/09 08:59:07;;;;;;;4.82;2.90;;;;;;;24.52;56.25;102696.84;5003701;28;20158;-79
2022/08/09 09:01:34;;;;;;;6.55;2.92;;;;;;;24.76;55.13;102698.25;5004943;28;20037;-80
2022/08/09 09:04:02;;;;;;;4.95;2.88;;;;;;;25.23;53.28;102693.88;4985166;28;20397;-79
2022/08/09 09:06:30;;;;;;;5.72;2.90;;;;;;;25.23;53.35;102693.88;4983513;28;20490;-79
2022/08/09 09:08:57;;;;;;;5.43;2.45;;;;;;;25.25;51.43;102691.69;5006573;28;20503;-79
2022/08/09 09:11:22;;;;;;;5.00;2.05;;;;;;;25.10;50.76;102694.34;5006646;28;20358;-80
2022/08/09 09:13:53;;;;;;;3.33;2.47;;;;;;;25.19;50.14;102689.97;4990454;28;20051;-79
2022/08/09 09:16:19;;;;;;;4.90;2.30;;;;;;;25.35;49.66;102695.66;5006121;28;20038;-80
2022/08/09 09:18:44;;;;;;;3.55;2.10;;;;;;;25.86;50.26;102697.88;5006481;28;20544;-79
2022/08/09 09:21:09;;;;;;;4.75;2.20;;;;;;;26.21;49.46;102696.38;5005694;28;20048;-79
2022/08/09 09:23:43;;;;;;;4.28;2.00;;;;;;;26.53;49.15;102698.91;5005867;28;20067;-81
2022/08/09 09:26:10;;;;;;;4.20;2.08;;;;;;;26.63;46.87;102704.50;5004092;28;20803;-79
2022/08/09 09:28:36;;;;;;;2.42;1.70;;;;;;;26.93;45.66;102713.19;5005176;28;20053;-80
2022/08/09 09:31:04;;;;;;;4.15;1.80;;;;;;;26.59;44.15;102700.59;5005083;28;20153;-80
2022/08/09 09:33:33;;;;;;;3.95;1.90;;;;;;;26.62;44.52;102713.13;5003275;28;20037;-82
2022/08/09 09:36:02;;;;;;;4.30;1.67;;;;;;;26.58;45.30;102703.66;5004226;28;20452;-77
2022/08/09 09:38:51;;;;;;;2.50;1.67;;;;;;;26.85;46.26;102697.06;5003884;28;20401;-79
2022/08/09 09:41:22;;;;;;;5.05;1.80;;;;;;;26.90;43.12;102702.59;5003550;28;20331;-80
2022/08/09 09:43:48;;;;;;;3.25;1.80;;;;;;;26.89;44.19;102698.16;5004126;28;20116;-79
2022/08/09 09:46:13;;;;;;;2.22;1.40;;;;;;;27.02;42.85;102697.59;5004059;28;20092;-81
2022/08/09 09:48:55;;;;;;;1.85;1.30;;;;;;;27.33;43.56;102688.38;5003537;28;20038;-81
2022/08/09 09:51:20;;;;;;;4.18;1.50;;;;;;;27.57;42.65;102694.19;5003594;28;20127;-79
2022/08/09 09:53:47;;;;;;;2.85;1.30;;;;;;;27.63;42.09;102687.47;4983267;28;20060;-78
2022/08/09 09:56:12;;;;;;;3.80;1.50;;;;;;;27.96;42.50;102696.25;4956128;28;20042;-81
2022/08/09 09:58:46;;;;;;;1.77;1.30;;;;;;;28.29;41.99;102696.69;5004034;28;20095;-80
2022/08/09 10:01:21;;;;;;;1.75;1.30;;;;;;;28.51;40.36;102701.00;5003954;28;20033;-81
2022/08/09 10:03:51;;;;;;;2.05;1.20;;;;;;;28.38;38.42;102699.69;4986189;28;20052;-81
2022/08/09 10:06:17;;;;;;;2.60;1.08;;;;;;;28.50;37.74;102696.53;4978357;28;20536;-79
2022/08/09 10:08:48;;;;;;;3.92;1.38;;;;;;;28.69;38.34;102699.50;4980878;28;20124;-81
2022/08/09 10:11:17;;;;;;;3.58;1.30;;;;;;;28.52;38.91;102702.66;5001453;28;20172;-78
2022/08/09 10:13:43;;;;;;;3.35;1.10;;;;;;;28.30;37.94;102703.91;5001277;28;20080;-79
2022/08/09 10:16:08;;;;;;;3.05;1.00;;;;;;;28.04;37.85;102694.88;4981541;28;20132;-80
2022/08/09 10:18:34;;;;;;;3.95;0.73;;;;;;;28.01;38.02;102699.06;5001516;28;20658;-80
2022/08/09 10:21:08;;;;;;;1.50;0.82;;;;;;;28.41;38.01;102696.31;5001081;28;20072;-79
2022/08/09 10:23:36;;;;;;;2.65;1.08;;;;;;;28.92;38.19;102693.16;4983078;28;20049;-77
2022/08/09 10:26:02;;;;;;;1.88;0.80;;;;;;;28.74;36.88;102696.69;5000658;28;20044;-81
2022/08/09 10:28:32;;;;;;;1.85;0.85;;;;;;;28.75;36.10;102695.53;5000628;28;20053;-79
2022/08/09 10:30:58;;;;;;;2.33;1.23;;;;;;;28.93;36.37;102691.22;5001581;28;20083;-80
2022/08/09 10:33:24;;;;;;;2.40;1.20;;;;;;;29.14;36.73;102687.09;4981770;28;20689;-79
2022/08/09 10:35:51;;;;;;;2.33;0.75;;;;;;;29.40;35.90;102683.22;4986926;28;20037;-79
2022/08/09 10:38:17;;;;;;;2.67;1.17;;;;;;;29.55;35.73;102687.81;5000806;28;20405;-81
2022/08/09 10:40:44;;;;;;;3.15;0.98;;;;;;;29.83;35.44;102680.47;5001302;28;20512;-79
2022/08/09 10:43:10;;;;;;;2.00;1.08;;;;;;;29.69;37.05;102680.38;4981570;28;20037;-80
2022/08/09 10:45:54;;;;;;;2.05;1.13;;;;;;;29.76;35.30;102678.06;4980517;28;20066;-81
2022/08/09 10:48:26;;;;;;;2.47;0.95;;;;;;;29.65;35.42;102673.72;4983486;28;20428;-81
2022/08/09 10:51:22;;;;;;;1.05;1.00;;;;;;;29.07;35.12;102669.84;5001319;28;20061;-79
2022/08/09 10:53:47;;;;;;;4.07;1.10;;;;;;;28.84;35.67;102668.69;5001074;28;20069;-79
2022/08/09 10:56:22;;;;;;;2.95;1.00;;;;;;;29.21;37.04;102658.00;5003456;28;20679;-80
2022/08/09 10:58:49;;;;;;;2.58;1.08;;;;;;;29.51;36.68;102665.22;5002022;28;20033;-79
2022/08/09 11:01:34;;;;;;;3.70;1.10;;;;;;;29.60;37.09;102663.44;4984377;28;20057;-77
2022/08/09 11:04:12;;;;;;;1.75;1.27;;;;;;;29.36;37.36;102654.25;5002971;28;20044;-79
2022/08/09 11:06:39;;;;;;;2.38;1.30;;;;;;;29.72;37.84;102667.78;5004719;28;20317;-79
2022/08/09 11:09:09;;;;;;;3.90;1.27;;;;;;;29.74;36.23;102666.38;5006365;28;20077;-81
2022/08/09 11:11:56;;;;;;;3.17;1.10;;;;;;;30.03;36.38;102662.66;5006182;28;20068;-80
2022/08/09 11:14:29;;;;;;;1.83;1.00;;;;;;;30.09;34.71;102657.81;5008917;28;21367;-82
2022/08/09 11:16:55;;;;;;;1.42;0.93;;;;;;;30.00;34.55;102663.22;5008264;28;20382;-79
2022/08/09 11:20:02;;;;;;;1.92;1.00;;;;;;;30.05;35.02;102674.34;5007913;28;20061;-80
2022/08/09 11:22:39;;;;;;;2.08;0.90;;;;;;;30.05;35.44;102665.94;5007999;28;20116;-77